Monterrey, México

4:42 AM EST en Agosto 04, 2015 (GMT -0500)
Valle de las Brisas | | Change Station
CLOSE
Current Station
Estación meteorológica personal
Location: Monterrey, Nuevo Leon
Altura: 1870 ft
Estaciones meteorológicas cercanas

Alt 1870 ft 25.64 °N, 100.29 °W | Updated 12 minutes ago

Mostly Cloudy
Muy nublado
80.4 ° F
Sensación térmica 85 ° F
N
0.0
Viento Variable Viento desde NNO
Gusts 4.5 mph

Hoy
Alta -- | Baja -- ° F
--% Posibilidad de precipitaciones
Ayer
Alta -- | Baja -- ° F
Precip. -- pul
7:09 AM 8:25 PM
Gibosa menguante, 79% visible
Presión 29.86 pul
Visibilidad 10.0 Millas
Nubes Muy nublado 6000 ft
Índice de calor 85 ° F
Punto de rocío 74 ° F
Humedad 80%
Precipitaciones 0.00 pul
Espesor de la nieve No disponible.
UV 0 de una escala de 12
Polen No disponible.
Calidad del aire No disponible.
Flu Activity No disponible.
METAR MMMY 040840Z 09008KT 10SM BKN060 26/21 A2988 RMK SLP111 58010 912 8/500

More Conditions Fewer Conditions

Presión 29.86 pul
Visibilidad 10.0 Millas
Nubes Muy nublado 6000 ft
Índice de calor 85 ° F
Punto de rocío 74 ° F
Humedad 80%
Precipitaciones 0.00 pul
Espesor de la nieve No disponible.
UV 0 de una escala de 12
Polen No disponible.
Calidad del aire No disponible.
Flu Activity No disponible.
METAR MMMY 040840Z 09008KT 10SM BKN060 26/21 A2988 RMK SLP111 58010 912 8/500

More Conditions Fewer Conditions

10-Day Weather Forecast

×

Almanac

Astronomía

Aug. 04, 2015 Salida Puesta
Hora real
Crepúsculo civil
Crepúsculo náutico
Crepúsculo astronómico
Luna
Horas de luz
Horas de luz
Tomorrow will be .
, % of the Moon is Illuminated

Extremos de hoy

Máximos del país Bajas del país

Community

WunderPhotos

Upload Photos

1,843,880 ¡fotos cargadas!

WunderBlogs® & News

Nearby

Calidad del aire

  Calidad del aire Índice AQ Contaminante
Not available.

Grosos de nieve

Estación Profundido Altura

Actividad de terremotos

Ciudad Distance Mag. Tiempo y dato
Magnitud mínima muestra es 2,5.

Temperaturas de aguas costeras

Lugar Temperatura

Stations

Estaciones meteorológicas cercanas

Ubicación de la estación Temp. Vientos helados Punto de rocío Humedad Viento Precip. Alt Actualizado Tipo